Time;durP1;ratioP1;P1;durP2;ratioP2;P2;SDS_P1;SDS_P2;PMS_P1;PMS_P2;Temp;Humidity;BMP_temperature;BMP_pressure;BME280_temperature;BME280_humidity;BME280_pressure;Samples;Min_cycle;Max_cycle;Signal;HPM_P1;HPM_P2
2022/11/08 00:02:33;;;;;;;5.47;3.95;;;12.60;96.70;;;;;;4948212;28;20050;-71
2022/11/08 00:16:16;;;;;;;4.47;2.92;;;12.40;96.70;;;;;;4963257;28;20058;-72
2022/11/08 00:18:43;;;;;;;4.60;3.17;;;12.40;96.70;;;;;;4940902;28;20489;-72
2022/11/08 00:21:11;;;;;;;4.75;3.38;;;12.40;96.70;;;;;;4951126;28;20130;-72
2022/11/08 00:23:38;;;;;;;4.50;3.20;;;12.40;96.70;;;;;;4960126;28;20533;-72
2022/11/08 00:26:07;;;;;;;5.55;4.57;;;12.40;96.70;;;;;;4954586;28;20054;-72
2022/11/08 00:28:35;;;;;;;6.40;4.47;;;12.40;96.70;;;;;;4943475;28;20153;-72
2022/11/08 00:31:04;;;;;;;8.57;4.57;;;12.40;96.70;;;;;;4947518;28;20130;-72
2022/11/08 00:33:32;;;;;;;7.38;4.32;;;12.50;96.70;;;;;;4948163;28;20734;-72
2022/11/08 00:36:01;;;;;;;5.68;3.72;;;12.50;96.70;;;;;;4928890;28;20096;-71
2022/11/08 00:38:29;;;;;;;6.75;3.85;;;12.40;96.70;;;;;;4945446;28;20406;-72
2022/11/08 00:40:56;;;;;;;4.45;3.40;;;12.40;96.70;;;;;;4949117;28;20051;-72
2022/11/08 00:43:26;;;;;;;6.97;3.90;;;12.40;96.70;;;;;;4948891;28;20065;-71
2022/11/08 00:45:53;;;;;;;4.38;3.22;;;12.40;96.70;;;;;;4934432;29;20110;-72
2022/11/08 00:48:21;;;;;;;4.78;3.30;;;12.40;96.70;;;;;;4943049;28;20039;-71
2022/11/08 00:50:49;;;;;;;5.07;3.78;;;12.40;96.70;;;;;;4931475;28;20561;-71
2022/11/08 00:53:17;;;;;;;4.65;3.53;;;12.40;96.70;;;;;;4928188;28;20047;-71
2022/11/08 00:55:45;;;;;;;3.95;2.90;;;12.40;96.70;;;;;;4933524;28;20051;-72
2022/11/08 00:58:13;;;;;;;5.32;3.33;;;12.40;96.70;;;;;;4963945;28;20058;-72
2022/11/08 01:00:42;;;;;;;6.68;4.05;;;12.40;96.70;;;;;;4937755;28;20055;-71
2022/11/08 01:03:19;;;;;;;4.88;3.50;;;12.40;96.70;;;;;;4945814;28;20047;-71
2022/11/08 01:05:49;;;;;;;5.88;3.70;;;12.30;96.70;;;;;;4929621;28;20051;-72
2022/11/08 01:08:17;;;;;;;6.53;3.90;;;12.30;96.70;;;;;;4945900;28;20036;-72
2022/11/08 01:10:47;;;;;;;6.95;3.88;;;12.40;96.70;;;;;;4936645;28;20066;-71
2022/11/08 01:13:16;;;;;;;6.93;3.60;;;12.40;96.70;;;;;;4922093;29;20059;-71
2022/11/08 01:15:46;;;;;;;5.70;3.90;;;12.40;96.70;;;;;;4962551;28;20047;-71
2022/11/08 01:18:16;;;;;;;6.65;3.72;;;12.40;96.70;;;;;;4955651;28;20054;-71
2022/11/08 01:20:46;;;;;;;6.18;3.92;;;12.40;96.70;;;;;;4956993;28;20047;-71
2022/11/08 01:23:15;;;;;;;5.10;3.70;;;12.40;96.70;;;;;;4930097;29;20047;-71
2022/11/08 01:25:44;;;;;;;5.03;3.75;;;12.40;96.70;;;;;;4929892;29;20050;-73
2022/11/08 01:28:12;;;;;;;4.50;3.80;;;12.40;96.70;;;;;;4944480;28;20043;-73
2022/11/08 01:30:41;;;;;;;6.22;4.38;;;12.40;96.70;;;;;;4929477;28;20575;-73
2022/11/08 01:33:11;;;;;;;7.18;4.20;;;12.50;96.70;;;;;;4908129;29;20047;-73
2022/11/08 01:35:40;;;;;;;5.82;4.15;;;12.50;96.70;;;;;;4937151;28;20058;-73
2022/11/08 01:38:09;;;;;;;5.20;4.32;;;12.50;96.70;;;;;;4942229;28;20046;-73
2022/11/08 01:40:42;;;;;;;5.15;3.78;;;12.50;96.70;;;;;;4946241;28;20048;-72
2022/11/08 01:43:36;;;;;;;6.45;4.13;;;12.50;96.70;;;;;;4930227;28;20065;-72
2022/11/08 01:46:41;;;;;;;7.05;4.22;;;12.40;96.70;;;;;;4946008;28;20042;-73
2022/11/08 01:49:26;;;;;;;7.15;4.75;;;12.40;96.70;;;;;;4930012;29;20055;-72
2022/11/08 01:52:01;;;;;;;6.85;4.03;;;12.40;96.70;;;;;;4943708;28;20042;-72
2022/11/08 01:54:34;;;;;;;5.43;4.18;;;12.40;96.70;;;;;;4952880;28;20059;-72
2022/11/08 01:57:06;;;;;;;5.82;4.10;;;12.40;96.70;;;;;;4958250;28;20062;-73
2022/11/08 01:59:37;;;;;;;5.85;3.75;;;12.40;96.70;;;;;;4958161;28;20413;-73
2022/11/08 02:02:14;;;;;;;4.82;3.58;;;12.40;96.70;;;;;;4927611;29;20051;-73
2022/11/08 02:04:43;;;;;;;5.18;3.90;;;12.40;96.70;;;;;;4938172;28;20058;-72
2022/11/08 02:07:12;;;;;;;4.65;3.40;;;12.30;96.70;;;;;;4928562;28;20059;-73
2022/11/08 02:09:43;;;;;;;7.25;3.75;;;12.30;96.70;;;;;;4928738;29;20131;-72
2022/11/08 02:12:12;;;;;;;6.15;3.55;;;12.20;96.70;;;;;;4946302;28;20047;-72
2022/11/08 02:14:40;;;;;;;4.88;3.38;;;12.20;96.70;;;;;;4927507;28;20538;-73
2022/11/08 02:17:08;;;;;;;4.65;3.20;;;12.10;96.70;;;;;;4929664;28;20587;-73
2022/11/08 02:19:40;;;;;;;5.00;2.88;;;12.10;96.70;;;;;;4954402;28;20050;-73
2022/11/08 02:22:17;;;;;;;3.40;2.80;;;12.20;96.70;;;;;;4934275;28;20132;-72
2022/11/08 02:24:47;;;;;;;3.72;2.63;;;12.10;96.70;;;;;;4944006;28;20046;-73
2022/11/08 02:27:15;;;;;;;4.70;3.20;;;12.10;96.70;;;;;;4945351;28;20159;-73
2022/11/08 02:29:43;;;;;;;8.02;3.92;;;12.10;96.70;;;;;;4933662;28;20417;-73
2022/11/08 02:32:11;;;;;;;5.10;3.35;;;12.10;96.70;;;;;;4936983;28;20077;-73
2022/11/08 02:34:43;;;;;;;5.22;3.10;;;12.00;96.70;;;;;;4944587;28;20054;-72
2022/11/08 02:37:14;;;;;;;4.40;2.97;;;12.00;96.70;;;;;;4913179;29;20065;-73
2022/11/08 02:39:43;;;;;;;4.43;2.78;;;12.00;96.70;;;;;;4952236;28;20045;-72
2022/11/08 02:42:14;;;;;;;4.25;2.92;;;12.00;96.70;;;;;;4925817;28;20047;-73
2022/11/08 02:44:42;;;;;;;4.97;2.92;;;11.90;96.70;;;;;;4926399;29;20415;-73
2022/11/08 02:47:10;;;;;;;3.45;2.58;;;11.90;96.70;;;;;;4928892;29;20067;-73
2022/11/08 02:49:38;;;;;;;5.40;2.67;;;11.80;96.70;;;;;;4932072;29;20075;-72
2022/11/08 02:52:06;;;;;;;2.95;2.50;;;11.80;96.70;;;;;;4939804;29;20049;-73
2022/11/08 02:54:36;;;;;;;5.97;2.90;;;11.80;96.70;;;;;;4929434;29;20055;-73
2022/11/08 02:57:16;;;;;;;5.25;2.70;;;11.80;96.70;;;;;;4942908;29;20063;-73
2022/11/08 02:59:45;;;;;;;3.80;2.67;;;11.80;96.70;;;;;;4941833;29;20047;-73
2022/11/08 03:02:14;;;;;;;3.78;2.60;;;11.70;96.70;;;;;;4940533;29;20537;-73
2022/11/08 03:04:41;;;;;;;3.15;2.40;;;11.70;96.70;;;;;;4931042;29;20056;-73
2022/11/08 03:07:09;;;;;;;4.88;2.72;;;11.70;96.70;;;;;;4924444;29;20051;-72
2022/11/08 03:09:37;;;;;;;4.80;3.00;;;11.80;96.70;;;;;;4931489;29;20572;-73
2022/11/08 03:12:06;;;;;;;5.07;3.03;;;11.80;96.70;;;;;;4935365;28;20039;-73
2022/11/08 03:14:36;;;;;;;4.47;2.92;;;11.80;96.70;;;;;;4930289;29;20056;-73
2022/11/08 03:17:05;;;;;;;4.38;2.83;;;11.70;96.70;;;;;;4927871;29;20059;-73
2022/11/08 03:19:33;;;;;;;3.97;2.67;;;11.70;96.70;;;;;;4937638;29;20043;-73
2022/11/08 03:22:02;;;;;;;4.72;2.45;;;11.80;96.70;;;;;;4945540;28;20047;-73
2022/11/08 03:24:30;;;;;;;4.00;2.40;;;11.80;96.70;;;;;;4929423;29;20078;-73
2022/11/08 03:26:59;;;;;;;4.57;2.70;;;11.80;96.70;;;;;;4940767;29;20048;-73
2022/11/08 03:29:27;;;;;;;4.03;2.72;;;11.80;96.70;;;;;;4933431;29;20078;-72
2022/11/08 03:31:57;;;;;;;3.20;2.55;;;11.80;96.70;;;;;;4911624;29;20052;-73
2022/11/08 03:34:25;;;;;;;3.83;2.60;;;11.70;96.70;;;;;;4935730;29;20058;-73
2022/11/08 03:36:53;;;;;;;3.75;2.83;;;11.70;96.70;;;;;;4943906;29;20048;-72
2022/11/08 03:39:21;;;;;;;5.03;2.47;;;11.80;96.70;;;;;;4935553;29;20123;-74
2022/11/08 03:41:50;;;;;;;3.40;2.47;;;11.70;96.70;;;;;;4928225;29;20039;-73
2022/11/08 03:44:18;;;;;;;3.75;2.60;;;11.70;96.70;;;;;;4924758;29;20427;-73
2022/11/08 03:46:47;;;;;;;8.10;4.55;;;11.80;96.70;;;;;;4943083;28;20418;-73
2022/11/08 03:49:16;;;;;;;4.60;2.50;;;11.80;96.70;;;;;;4931582;29;20091;-72
2022/11/08 03:51:45;;;;;;;4.22;2.70;;;11.70;96.70;;;;;;4937649;29;20570;-73
2022/11/08 03:54:13;;;;;;;5.00;2.97;;;11.70;96.70;;;;;;4932916;28;20051;-73
2022/11/08 03:56:41;;;;;;;3.63;2.65;;;11.70;96.70;;;;;;4937234;28;20062;-74
2022/11/08 03:59:11;;;;;;;4.53;2.90;;;11.70;96.70;;;;;;4928545;29;20046;-73
2022/11/08 04:01:39;;;;;;;3.80;2.95;;;11.70;96.70;;;;;;4919675;29;20153;-73
2022/11/08 04:04:07;;;;;;;4.43;2.28;;;11.60;96.70;;;;;;4927963;29;20044;-73
2022/11/08 04:06:38;;;;;;;4.82;2.90;;;11.60;96.70;;;;;;4927007;29;20554;-73
2022/11/08 04:09:06;;;;;;;4.65;2.88;;;11.60;96.70;;;;;;4929816;29;20138;-73
2022/11/08 04:17:08;;;;;;;3.33;2.70;;;11.60;96.70;;;;;;4928514;29;20048;-77
2022/11/08 04:22:25;;;;;;;5.07;3.03;;;11.60;96.70;;;;;;4939958;29;20055;-73
2022/11/08 04:24:53;;;;;;;5.95;2.97;;;11.50;96.70;;;;;;4941147;29;20063;-73
2022/11/08 04:27:22;;;;;;;4.15;2.88;;;11.50;96.70;;;;;;4920461;29;20561;-73
2022/11/08 04:29:50;;;;;;;5.55;2.60;;;11.50;96.70;;;;;;4934379;29;20055;-74
2022/11/08 04:32:22;;;;;;;4.03;3.30;;;11.50;96.70;;;;;;4925822;29;20812;-73
2022/11/08 04:34:50;;;;;;;4.85;3.33;;;11.50;96.70;;;;;;4933099;29;20048;-73
2022/11/08 04:37:20;;;;;;;3.70;3.10;;;11.50;96.70;;;;;;4939293;29;20559;-74
2022/11/08 04:39:50;;;;;;;3.47;2.63;;;11.50;96.70;;;;;;4927983;29;20047;-73
2022/11/08 04:42:18;;;;;;;3.15;2.72;;;11.50;96.70;;;;;;4952062;28;20048;-73
2022/11/08 04:44:46;;;;;;;4.50;3.33;;;11.50;96.70;;;;;;4921518;29;20060;-73
2022/11/08 04:47:15;;;;;;;4.78;2.92;;;11.50;96.70;;;;;;4928130;29;20126;-73
2022/11/08 04:49:43;;;;;;;5.25;3.40;;;11.50;96.70;;;;;;4928458;29;20044;-73
2022/11/08 04:52:11;;;;;;;4.30;3.15;;;11.40;96.70;;;;;;4926163;29;20068;-73
2022/11/08 04:54:43;;;;;;;4.90;3.08;;;11.50;96.70;;;;;;4926637;29;20099;-73
2022/11/08 04:57:13;;;;;;;5.55;3.45;;;11.50;96.70;;;;;;4925667;29;20142;-73
2022/11/08 04:59:41;;;;;;;5.38;3.30;;;11.50;96.70;;;;;;4927422;29;20047;-73
2022/11/08 05:02:09;;;;;;;4.88;3.20;;;11.40;96.70;;;;;;4930540;29;20043;-73
2022/11/08 05:04:37;;;;;;;4.15;3.15;;;11.40;96.70;;;;;;4932493;29;20043;-73
2022/11/08 05:07:06;;;;;;;5.13;3.40;;;11.40;96.70;;;;;;4943916;28;20082;-72
2022/11/08 05:09:34;;;;;;;4.28;2.92;;;11.30;96.70;;;;;;4930109;29;20051;-73
2022/11/08 05:12:02;;;;;;;4.20;3.22;;;11.30;96.70;;;;;;4925721;29;20044;-72
2022/11/08 05:14:32;;;;;;;6.45;3.80;;;11.30;96.70;;;;;;4934082;29;20059;-72
2022/11/08 05:17:00;;;;;;;5.43;3.30;;;11.30;96.70;;;;;;4940312;28;20105;-72
2022/11/08 05:25:02;;;;;;;4.88;3.33;;;11.20;96.70;;;;;;4939963;29;20078;-73
2022/11/08 05:27:30;;;;;;;5.53;3.30;;;11.20;96.70;;;;;;4930169;29;20127;-72
2022/11/08 05:30:17;;;;;;;4.05;3.50;;;11.30;96.70;;;;;;4927783;28;20610;-72
2022/11/08 05:32:45;;;;;;;5.32;3.75;;;11.30;96.70;;;;;;4924040;29;20039;-72
2022/11/08 05:35:14;;;;;;;4.45;3.58;;;11.30;96.70;;;;;;4926974;29;20138;-72
2022/11/08 05:37:42;;;;;;;4.78;3.20;;;11.30;96.70;;;;;;4927237;29;20178;-72
2022/11/08 05:40:11;;;;;;;5.88;3.83;;;11.20;96.70;;;;;;4925713;29;20052;-72
2022/11/08 05:42:39;;;;;;;3.92;3.00;;;11.20;96.70;;;;;;4931007;28;20054;-72
2022/11/08 05:45:08;;;;;;;4.18;3.30;;;11.20;96.70;;;;;;4935842;28;20065;-72
2022/11/08 05:47:42;;;;;;;6.22;3.30;;;11.20;96.70;;;;;;4951458;28;20050;-72
2022/11/08 05:50:10;;;;;;;5.53;3.42;;;11.20;96.70;;;;;;4928987;29;20051;-72
2022/11/08 05:52:47;;;;;;;6.40;3.60;;;11.10;96.70;;;;;;4927400;28;20051;-72
2022/11/08 05:55:16;;;;;;;4.60;3.28;;;11.10;96.70;;;;;;4957104;28;20047;-73
2022/11/08 05:57:44;;;;;;;4.72;3.33;;;11.10;96.70;;;;;;4955353;28;20042;-72
2022/11/08 06:00:30;;;;;;;5.65;3.17;;;11.10;96.70;;;;;;4925978;29;20052;-72
2022/11/08 06:03:01;;;;;;;4.77;3.10;;;11.10;96.70;;;;;;4940983;28;20509;-73
2022/11/08 06:05:29;;;;;;;4.50;3.13;;;11.10;96.70;;;;;;4962465;28;20100;-72
2022/11/08 06:07:57;;;;;;;4.40;2.97;;;11.00;96.70;;;;;;4934446;29;20537;-73
2022/11/08 06:10:26;;;;;;;5.03;3.05;;;10.90;96.70;;;;;;4912247;29;20718;-72
2022/11/08 06:12:59;;;;;;;4.32;3.20;;;11.00;96.70;;;;;;4914877;28;20513;-72
2022/11/08 06:15:27;;;;;;;4.20;3.28;;;11.00;96.70;;;;;;4947775;28;20069;-72
2022/11/08 06:18:00;;;;;;;4.78;2.80;;;11.00;96.70;;;;;;4953852;28;20043;-72
2022/11/08 06:20:30;;;;;;;7.40;3.50;;;11.00;96.70;;;;;;4959038;28;20047;-72
2022/11/08 06:22:58;;;;;;;5.45;3.65;;;11.00;96.70;;;;;;4964494;28;20047;-72
2022/11/08 06:25:26;;;;;;;5.28;3.20;;;11.00;96.70;;;;;;4960203;28;20125;-72
2022/11/08 06:27:54;;;;;;;4.75;3.42;;;11.10;96.70;;;;;;4939265;28;20046;-72
2022/11/08 06:30:23;;;;;;;4.20;2.92;;;11.00;96.70;;;;;;4945309;28;20054;-72
2022/11/08 06:32:51;;;;;;;4.82;3.10;;;11.00;96.70;;;;;;4924592;28;20461;-72
2022/11/08 06:35:19;;;;;;;4.32;3.45;;;11.10;96.70;;;;;;4956118;28;20043;-72
2022/11/08 06:37:50;;;;;;;7.03;3.25;;;11.10;96.70;;;;;;4950424;28;20133;-72
2022/11/08 06:40:23;;;;;;;6.90;3.63;;;11.20;96.70;;;;;;4941202;28;20406;-72
2022/11/08 06:42:52;;;;;;;6.28;3.88;;;11.10;96.70;;;;;;4957624;28;20067;-72
2022/11/08 06:45:20;;;;;;;3.85;2.92;;;11.20;96.70;;;;;;4948220;28;20118;-72
2022/11/08 06:47:48;;;;;;;7.15;3.75;;;11.20;96.70;;;;;;4931503;29;20163;-72
2022/11/08 06:50:17;;;;;;;5.95;3.20;;;11.30;96.70;;;;;;4932040;28;20043;-72
2022/11/08 06:52:46;;;;;;;4.88;3.33;;;11.40;96.70;;;;;;4932384;28;20070;-73
2022/11/08 06:55:16;;;;;;;5.75;3.63;;;11.40;96.70;;;;;;4951141;28;20053;-72
2022/11/08 06:57:45;;;;;;;8.30;5.00;;;11.50;96.70;;;;;;4931621;29;20051;-73
2022/11/08 07:00:15;;;;;;;10.32;4.50;;;11.40;96.70;;;;;;4931641;29;20433;-72
2022/11/08 07:02:43;;;;;;;8.00;4.47;;;11.50;96.70;;;;;;4947602;28;20134;-73
2022/11/08 07:05:12;;;;;;;6.93;4.32;;;11.50;96.70;;;;;;4958642;28;20047;-73
2022/11/08 07:07:40;;;;;;;7.07;3.72;;;11.50;96.70;;;;;;4950132;28;20054;-73
2022/11/08 07:10:09;;;;;;;5.85;4.60;;;11.50;96.70;;;;;;4932006;28;20054;-73
2022/11/08 07:12:38;;;;;;;6.45;4.38;;;11.60;96.70;;;;;;4915285;29;20044;-72
2022/11/08 07:15:07;;;;;;;6.10;3.70;;;11.60;96.70;;;;;;4947648;28;20063;-74
2022/11/08 07:17:35;;;;;;;6.47;3.97;;;11.60;96.70;;;;;;4930278;28;20501;-73
2022/11/08 07:20:07;;;;;;;9.13;4.28;;;11.70;96.70;;;;;;4949079;28;20416;-73
2022/11/08 07:22:35;;;;;;;7.40;4.03;;;11.70;96.70;;;;;;4948249;28;20106;-73
2022/11/08 07:25:04;;;;;;;8.52;3.58;;;11.80;96.70;;;;;;4948502;28;20047;-73
2022/11/08 07:27:32;;;;;;;10.15;3.88;;;11.90;96.70;;;;;;4947818;28;20481;-73
2022/11/08 07:30:02;;;;;;;9.85;3.70;;;11.90;96.70;;;;;;4929887;28;20512;-73
2022/11/08 07:32:30;;;;;;;6.03;3.20;;;11.90;96.70;;;;;;4950854;28;20047;-73
2022/11/08 07:34:58;;;;;;;6.15;3.58;;;12.00;96.70;;;;;;4933371;28;20046;-73
2022/11/08 07:37:26;;;;;;;6.57;3.13;;;12.10;96.70;;;;;;4952707;28;20047;-73
2022/11/08 07:39:54;;;;;;;7.90;3.83;;;12.10;96.70;;;;;;4960360;28;20070;-73
2022/11/08 07:42:22;;;;;;;8.18;3.50;;;12.20;96.70;;;;;;4959697;28;20685;-73
2022/11/08 07:45:06;;;;;;;5.15;3.47;;;12.30;96.70;;;;;;4934475;28;20051;-73
2022/11/08 07:47:36;;;;;;;5.13;3.10;;;12.40;96.70;;;;;;4959175;28;20043;-74
2022/11/08 07:50:06;;;;;;;5.38;3.00;;;12.40;96.70;;;;;;4950008;28;20150;-74
2022/11/08 07:52:34;;;;;;;3.58;3.08;;;12.30;96.70;;;;;;4947082;28;20063;-74
2022/11/08 07:55:02;;;;;;;6.35;3.30;;;12.40;96.70;;;;;;4956612;28;20047;-73
2022/11/08 07:57:30;;;;;;;5.22;3.03;;;12.40;96.70;;;;;;4948558;28;20537;-73
2022/11/08 07:59:58;;;;;;;6.88;3.58;;;12.50;96.70;;;;;;4946376;28;20047;-73
2022/11/08 08:02:39;;;;;;;6.13;3.88;;;12.60;96.70;;;;;;4942752;28;20131;-73
2022/11/08 08:05:08;;;;;;;5.07;3.72;;;12.60;96.70;;;;;;4946074;28;20243;-72
2022/11/08 08:07:38;;;;;;;6.38;3.85;;;12.60;96.70;;;;;;4943713;28;20110;-73
2022/11/08 08:10:08;;;;;;;4.38;3.08;;;12.60;96.70;;;;;;4968560;28;20043;-73
2022/11/08 08:12:37;;;;;;;4.45;3.20;;;12.60;96.70;;;;;;4937753;28;20047;-73
2022/11/08 08:15:08;;;;;;;5.22;3.53;;;12.60;96.70;;;;;;4958474;28;20046;-74
2022/11/08 08:17:37;;;;;;;6.70;3.55;;;12.60;96.70;;;;;;4934517;29;20043;-74
2022/11/08 08:20:08;;;;;;;6.25;3.42;;;12.70;96.70;;;;;;4961858;28;20051;-73
2022/11/08 08:22:41;;;;;;;8.13;3.20;;;12.80;96.70;;;;;;4939770;28;20047;-73
2022/11/08 08:25:10;;;;;;;4.07;3.42;;;12.90;96.70;;;;;;4954210;28;20126;-73
2022/11/08 08:27:38;;;;;;;4.10;3.42;;;12.90;96.70;;;;;;4933406;29;20505;-73
2022/11/08 08:30:07;;;;;;;4.82;3.60;;;13.00;96.70;;;;;;4939545;28;20132;-73
2022/11/08 08:32:35;;;;;;;6.63;4.20;;;13.00;96.70;;;;;;4929447;28;20042;-73
2022/11/08 08:35:04;;;;;;;5.97;4.00;;;13.10;96.70;;;;;;4941019;28;20663;-74
2022/11/08 08:37:33;;;;;;;9.48;5.18;;;13.10;96.70;;;;;;4955207;28;20085;-73
2022/11/08 08:40:01;;;;;;;5.72;4.28;;;13.10;96.70;;;;;;4943601;28;20105;-72
2022/11/08 08:42:31;;;;;;;8.52;3.80;;;13.10;96.70;;;;;;4957337;28;20050;-73
2022/11/08 08:44:59;;;;;;;9.70;4.25;;;13.20;96.70;;;;;;4931846;29;20093;-72
2022/11/08 08:47:27;;;;;;;5.82;4.53;;;13.30;96.70;;;;;;4946975;28;20137;-72
2022/11/08 08:49:55;;;;;;;6.80;4.20;;;13.40;96.70;;;;;;4930057;28;20043;-73
2022/11/08 08:52:23;;;;;;;6.13;4.72;;;13.60;96.70;;;;;;4946680;28;20548;-73
2022/11/08 08:54:53;;;;;;;8.80;5.20;;;13.60;96.70;;;;;;4935128;28;20056;-72
2022/11/08 08:57:21;;;;;;;6.65;4.47;;;13.70;96.70;;;;;;4938432;28;20062;-74
2022/11/08 08:59:49;;;;;;;7.90;5.15;;;13.80;96.70;;;;;;4940256;29;20122;-74
2022/11/08 09:02:37;;;;;;;7.40;5.03;;;13.90;96.70;;;;;;4954659;28;20144;-73
2022/11/08 09:05:10;;;;;;;8.23;5.03;;;14.10;96.70;;;;;;4946163;28;20051;-73
2022/11/08 09:07:39;;;;;;;7.85;5.07;;;14.30;96.70;;;;;;4947407;28;20048;-73
2022/11/08 09:10:10;;;;;;;7.28;5.30;;;14.40;96.70;;;;;;4937413;28;20608;-73
2022/11/08 09:12:38;;;;;;;8.85;5.38;;;14.50;96.70;;;;;;4959358;28;20055;-73
2022/11/08 09:15:07;;;;;;;7.32;5.10;;;14.60;96.70;;;;;;4932182;28;20046;-73
2022/11/08 09:17:35;;;;;;;7.60;5.25;;;14.70;96.70;;;;;;4934169;28;20086;-72
2022/11/08 09:20:03;;;;;;;6.45;4.90;;;14.90;96.70;;;;;;4954152;28;20058;-73
2022/11/08 09:22:32;;;;;;;8.77;5.00;;;15.10;96.70;;;;;;4961566;28;20141;-73
2022/11/08 09:25:01;;;;;;;5.20;4.43;;;15.10;96.70;;;;;;4946191;28;20131;-74
2022/11/08 09:27:31;;;;;;;7.82;4.68;;;15.20;96.70;;;;;;4928793;28;20209;-74
2022/11/08 09:30:00;;;;;;;7.82;4.47;;;15.30;96.70;;;;;;4941843;28;20046;-73
2022/11/08 09:32:28;;;;;;;6.55;5.30;;;15.40;96.70;;;;;;4935955;29;20094;-72
2022/11/08 09:35:16;;;;;;;7.13;4.93;;;15.40;96.70;;;;;;4932392;28;20641;-73
2022/11/08 09:37:44;;;;;;;7.22;4.50;;;15.50;96.70;;;;;;4959258;28;20051;-73
2022/11/08 09:40:19;;;;;;;10.10;5.47;;;15.70;96.70;;;;;;4929527;29;20111;-73
2022/11/08 09:43:03;;;;;;;7.90;5.45;;;16.10;96.70;;;;;;4928921;29;20637;-73
2022/11/08 09:45:35;;;;;;;6.40;4.68;;;16.30;96.70;;;;;;4954023;28;20053;-74
2022/11/08 09:48:06;;;;;;;5.65;4.78;;;16.20;96.70;;;;;;4944387;28;20133;-73
2022/11/08 09:50:37;;;;;;;6.38;4.43;;;16.40;96.70;;;;;;4928347;29;20138;-73
2022/11/08 09:53:14;;;;;;;7.00;5.00;;;16.60;96.70;;;;;;4927052;29;20071;-74
2022/11/08 09:55:48;;;;;;;7.72;6.00;;;16.70;96.70;;;;;;4954077;28;20047;-73
2022/11/08 09:58:29;;;;;;;7.47;4.40;;;16.60;96.70;;;;;;4927969;28;20055;-73
2022/11/08 10:00:58;;;;;;;6.07;4.13;;;16.50;96.70;;;;;;4928159;29;20055;-73
2022/11/08 10:03:27;;;;;;;7.00;4.28;;;16.60;96.70;;;;;;4927776;28;20409;-73
2022/11/08 10:06:37;;;;;;;6.65;4.25;;;16.70;96.70;;;;;;4962744;28;20517;-74
2022/11/08 10:09:36;;;;;;;7.22;4.10;;;16.90;96.70;;;;;;4928340;28;20433;-74
2022/11/08 10:12:16;;;;;;;7.55;4.10;;;16.90;96.70;;;;;;4927856;28;20052;-76
2022/11/08 10:15:05;;;;;;;5.82;3.95;;;17.00;96.70;;;;;;4949700;28;20513;-74
2022/11/08 10:17:58;;;;;;;6.90;4.07;;;17.20;96.70;;;;;;4927732;28;20053;-74
2022/11/08 10:20:37;;;;;;;7.00;3.67;;;17.30;96.70;;;;;;4945164;28;20043;-74
2022/11/08 10:23:18;;;;;;;4.63;3.28;;;17.40;96.70;;;;;;4946705;28;20098;-74
2022/11/08 10:25:53;;;;;;;4.25;3.00;;;17.70;96.70;;;;;;4925245;28;20921;-75
2022/11/08 10:28:27;;;;;;;6.25;3.45;;;17.60;96.70;;;;;;4912293;29;20061;-74
2022/11/08 10:30:57;;;;;;;5.82;3.50;;;17.60;96.70;;;;;;4949850;28;20078;-74
2022/11/08 10:33:30;;;;;;;7.93;3.40;;;17.50;96.70;;;;;;4935476;28;20043;-72
2022/11/08 10:36:01;;;;;;;5.10;3.35;;;17.50;96.70;;;;;;4934604;28;20050;-73
2022/11/08 10:38:35;;;;;;;9.30;3.55;;;17.50;96.70;;;;;;4940709;29;20054;-73
2022/11/08 10:41:12;;;;;;;7.13;4.00;;;17.70;96.70;;;;;;4925433;29;20476;-73
2022/11/08 10:43:43;;;;;;;5.18;3.83;;;17.70;96.70;;;;;;4927779;28;20078;-73
2022/11/08 10:46:33;;;;;;;6.38;3.67;;;17.60;96.70;;;;;;4941664;28;20055;-73
2022/11/08 10:49:12;;;;;;;5.20;3.60;;;17.50;96.70;;;;;;4951029;28;20082;-72
2022/11/08 10:51:41;;;;;;;8.63;3.50;;;17.50;96.70;;;;;;4931064;28;20043;-73
2022/11/08 10:54:41;;;;;;;6.05;3.15;;;17.50;96.70;;;;;;4927877;28;20082;-72
2022/11/08 10:57:11;;;;;;;7.43;3.58;;;17.70;96.70;;;;;;4945800;28;20051;-73
2022/11/08 10:59:40;;;;;;;7.07;3.53;;;17.70;96.70;;;;;;4936189;28;21424;-73
2022/11/08 11:02:32;;;;;;;5.82;3.20;;;17.80;96.70;;;;;;4945717;28;20043;-72
2022/11/08 11:05:29;;;;;;;5.85;2.90;;;17.90;96.70;;;;;;4960340;28;20138;-72
2022/11/08 11:08:01;;;;;;;8.82;3.10;;;18.00;96.70;;;;;;4922190;28;20183;-73
2022/11/08 11:10:32;;;;;;;5.05;3.17;;;18.30;96.70;;;;;;4952045;28;20041;-73
2022/11/08 11:13:03;;;;;;;5.22;3.05;;;18.40;96.70;;;;;;4947759;28;20050;-72
2022/11/08 11:15:36;;;;;;;3.58;2.83;;;18.50;96.70;;;;;;4945051;28;21499;-73
2022/11/08 11:18:28;;;;;;;4.97;2.95;;;18.60;96.70;;;;;;4964529;28;20561;-72
2022/11/08 11:21:08;;;;;;;4.05;2.58;;;18.70;96.70;;;;;;4950086;28;20486;-73
2022/11/08 11:23:41;;;;;;;5.22;2.80;;;18.80;96.70;;;;;;4945326;28;20506;-73
2022/11/08 11:26:19;;;;;;;8.60;2.80;;;18.80;96.70;;;;;;4932524;29;20410;-72
2022/11/08 11:29:15;;;;;;;7.43;2.83;;;18.90;96.70;;;;;;4951395;28;20047;-72
2022/11/08 11:31:44;;;;;;;3.90;2.65;;;19.00;96.70;;;;;;4931564;29;20051;-72
2022/11/08 11:34:41;;;;;;;4.43;2.63;;;19.00;96.70;;;;;;4935180;28;20128;-73
2022/11/08 11:37:19;;;;;;;4.88;2.70;;;19.20;96.70;;;;;;4949425;28;20051;-73
2022/11/08 11:39:56;;;;;;;5.80;2.80;;;19.20;96.70;;;;;;4931613;29;20042;-73
2022/11/08 11:42:30;;;;;;;6.43;2.35;;;19.30;96.70;;;;;;4930580;28;20043;-73
2022/11/08 11:45:18;;;;;;;5.65;2.22;;;19.60;96.70;;;;;;4936483;28;20074;-73
2022/11/08 11:47:52;;;;;;;5.10;2.60;;;19.70;96.70;;;;;;4940019;29;20105;-73
2022/11/08 11:50:35;;;;;;;4.75;2.20;;;19.80;96.70;;;;;;4949596;28;20047;-73
2022/11/08 11:53:06;;;;;;;5.13;2.30;;;20.00;96.70;;;;;;4946922;28;20486;-73
2022/11/08 11:55:49;;;;;;;4.65;2.53;;;20.10;96.70;;;;;;4943468;28;20043;-72
2022/11/08 11:58:35;;;;;;;3.38;2.30;;;20.10;96.70;;;;;;4940104;28;20062;-73
2022/11/08 12:01:12;;;;;;;4.30;2.40;;;20.20;96.70;;;;;;4929805;28;20581;-72
2022/11/08 12:04:14;;;;;;;4.95;2.33;;;20.20;96.70;;;;;;4963316;28;20046;-73
2022/11/08 12:06:49;;;;;;;4.47;2.28;;;20.10;96.70;;;;;;4934449;28;20520;-73
2022/11/08 12:09:31;;;;;;;2.85;1.70;;;20.30;96.70;;;;;;4930808;29;20055;-74
2022/11/08 12:12:10;;;;;;;5.40;2.10;;;20.40;96.70;;;;;;4930410;28;20575;-73
2022/11/08 12:14:54;;;;;;;4.97;1.80;;;20.50;96.70;;;;;;4961392;28;20398;-73
2022/11/08 12:18:00;;;;;;;3.47;1.35;;;20.60;96.70;;;;;;4938447;28;20081;-73
2022/11/08 12:20:42;;;;;;;3.30;1.15;;;20.70;96.70;;;;;;4904473;28;20051;-73
2022/11/08 12:23:43;;;;;;;2.67;1.50;;;20.70;96.70;;;;;;4936484;29;20059;-73
2022/11/08 12:26:19;;;;;;;5.50;1.70;;;20.90;96.70;;;;;;4924105;28;20059;-73
2022/11/08 12:28:53;;;;;;;;;;;21.10;96.70;;;;;;4948994;28;20043;-73
2022/11/08 12:31:26;;;;;;;2.30;1.20;;;21.20;96.70;;;;;;4929088;29;19926;-73
2022/11/08 12:34:13;;;;;;;3.75;1.42;;;21.20;96.70;;;;;;4931413;28;20043;-72
2022/11/08 12:36:51;;;;;;;3.50;1.25;;;21.20;96.70;;;;;;4949195;28;20489;-73
2022/11/08 12:39:30;;;;;;;2.88;1.38;;;21.30;96.70;;;;;;4959643;28;20051;-74
2022/11/08 12:42:13;;;;;;;4.15;1.55;;;21.20;96.70;;;;;;4949892;28;20497;-73
2022/11/08 12:45:20;;;;;;;5.28;1.40;;;21.20;96.70;;;;;;4941968;29;20082;-73
2022/11/08 12:47:56;;;;;;;3.22;1.27;;;21.30;96.70;;;;;;4936962;28;20051;-73
2022/11/08 12:50:30;;;;;;;3.22;1.20;;;21.50;96.70;;;;;;4933692;29;20574;-73
2022/11/08 12:53:36;;;;;;;2.95;1.38;;;21.50;96.70;;;;;;4929281;29;20062;-74
2022/11/08 12:56:13;;;;;;;3.90;1.60;;;21.50;96.70;;;;;;4938995;28;20051;-73
2022/11/08 12:58:44;;;;;;;3.05;1.60;;;21.50;96.70;;;;;;4929385;28;20070;-73
2022/11/08 13:01:14;;;;;;;3.08;1.38;;;21.50;96.70;;;;;;4952078;28;20058;-73
2022/11/08 13:04:12;;;;;;;4.20;1.27;;;21.60;96.70;;;;;;4930945;28;20177;-73
2022/11/08 13:06:45;;;;;;;3.25;1.42;;;21.60;96.70;;;;;;4929119;28;20051;-73
2022/11/08 13:09:21;;;;;;;4.43;1.50;;;21.40;96.70;;;;;;4948562;28;20047;-74
2022/11/08 13:11:58;;;;;;;;;;;21.40;96.70;;;;;;4915974;28;20461;-73
2022/11/08 13:14:26;;;;;;;3.15;1.30;;;21.30;96.70;;;;;;4958360;28;19929;-73
2022/11/08 13:17:16;;;;;;;3.30;1.02;;;21.10;96.70;;;;;;4937357;28;20077;-73
2022/11/08 13:20:28;;;;;;;4.28;1.35;;;21.10;96.70;;;;;;4930596;29;20429;-73
2022/11/08 13:22:58;;;;;;;3.88;1.60;;;21.20;96.70;;;;;;4922247;28;20058;-73
2022/11/08 13:25:39;;;;;;;5.35;2.20;;;21.10;96.70;;;;;;4942872;28;20043;-73
2022/11/08 13:28:41;;;;;;;4.15;1.60;;;21.10;96.70;;;;;;4941558;28;20054;-74
2022/11/08 13:31:22;;;;;;;4.55;1.80;;;21.10;96.70;;;;;;4925978;29;20051;-73
2022/11/08 13:34:04;;;;;;;4.45;1.80;;;20.90;96.70;;;;;;4930282;29;20065;-73
2022/11/08 13:36:45;;;;;;;4.45;2.22;;;20.80;96.70;;;;;;4936324;28;20596;-73
2022/11/08 13:39:36;;;;;;;;;;;20.60;96.70;;;;;;4955110;28;20043;-73
2022/11/08 13:42:26;;;;;;;4.93;2.60;;;20.50;96.70;;;;;;4945732;28;19930;-73
2022/11/08 13:45:13;;;;;;;3.85;1.92;;;20.30;96.70;;;;;;4928476;29;20051;-73